Time;durP1;ratioP1;P1;durP2;ratioP2;P2;SDS_P1;SDS_P2;PMS_P1;PMS_P2;Temp;Humidity;BMP_temperature;BMP_pressure;BME280_temperature;BME280_humidity;BME280_pressure;Samples;Min_cycle;Max_cycle;Signal;HPM_P1;HPM_P2
2022/10/01 00:00:25;;;;;;;5.47;4.20;;;11.80;99.90;;;;;;4997655;28;20046;-67
2022/10/01 00:02:53;;;;;;;5.20;4.45;;;11.70;99.90;;;;;;4996099;28;20449;-67
2022/10/01 00:05:19;;;;;;;5.15;4.65;;;11.70;99.90;;;;;;4995962;28;20406;-68
2022/10/01 00:07:45;;;;;;;6.35;5.30;;;11.60;99.90;;;;;;4996847;28;20053;-68
2022/10/01 00:10:13;;;;;;;6.45;5.60;;;11.70;99.90;;;;;;4996951;28;20081;-68
2022/10/01 00:12:45;;;;;;;6.15;4.95;;;11.60;99.90;;;;;;4996757;28;20050;-68
2022/10/01 00:15:12;;;;;;;6.57;5.23;;;11.60;99.90;;;;;;4995872;28;20057;-68
2022/10/01 00:17:38;;;;;;;6.40;5.20;;;11.60;99.90;;;;;;4995669;28;20281;-67
2022/10/01 00:20:05;;;;;;;8.40;5.97;;;11.50;99.90;;;;;;4996876;28;20137;-68
2022/10/01 00:22:32;;;;;;;8.23;6.25;;;11.50;99.90;;;;;;4996546;28;20047;-68
2022/10/01 00:24:58;;;;;;;7.53;6.82;;;11.50;99.90;;;;;;4996534;28;20490;-68
2022/10/01 00:27:27;;;;;;;8.38;6.25;;;11.50;99.90;;;;;;4996913;28;20097;-67
2022/10/01 00:29:53;;;;;;;7.60;6.82;;;11.40;99.90;;;;;;4997116;28;20465;-68
2022/10/01 00:32:23;;;;;;;7.50;6.70;;;11.40;99.90;;;;;;4996303;28;20134;-68
2022/10/01 00:34:49;;;;;;;7.70;6.90;;;11.40;99.90;;;;;;4996326;28;20129;-68
2022/10/01 00:37:16;;;;;;;8.73;6.68;;;11.40;99.90;;;;;;4996399;28;20142;-68
2022/10/01 00:39:43;;;;;;;7.95;6.25;;;11.40;99.90;;;;;;4995681;28;20058;-67
2022/10/01 00:42:19;;;;;;;8.18;6.80;;;11.40;99.90;;;;;;4995985;28;20090;-68
2022/10/01 00:44:45;;;;;;;8.27;7.10;;;11.30;99.90;;;;;;4989740;28;20047;-68
2022/10/01 00:47:22;;;;;;;9.60;7.70;;;11.50;99.90;;;;;;4976600;28;20053;-68
2022/10/01 00:49:51;;;;;;;8.65;7.13;;;11.30;99.90;;;;;;4976595;28;20042;-67
2022/10/01 00:52:23;;;;;;;7.50;6.60;;;11.40;99.90;;;;;;4976840;28;20051;-67
2022/10/01 00:54:56;;;;;;;9.70;7.75;;;11.30;99.90;;;;;;4975851;28;20047;-68
2022/10/01 00:57:25;;;;;;;9.07;7.28;;;11.30;99.90;;;;;;4976926;28;20078;-67
2022/10/01 00:59:52;;;;;;;8.70;6.80;;;11.30;99.90;;;;;;4976613;28;20399;-66
2022/10/01 01:02:18;;;;;;;9.57;7.85;;;11.30;99.90;;;;;;4976518;28;20117;-67
2022/10/01 01:04:43;;;;;;;9.35;7.57;;;11.30;99.90;;;;;;4976619;28;20491;-67
2022/10/01 01:07:10;;;;;;;10.15;7.85;;;11.20;99.90;;;;;;4976602;28;20042;-67
2022/10/01 01:09:39;;;;;;;8.77;7.18;;;11.30;99.90;;;;;;4976449;28;20407;-65
2022/10/01 01:12:13;;;;;;;7.95;7.15;;;11.20;99.90;;;;;;4975708;28;20054;-66
2022/10/01 01:14:54;;;;;;;8.13;7.03;;;11.20;99.90;;;;;;4976210;28;20506;-66
2022/10/01 01:17:43;;;;;;;10.07;7.30;;;11.20;99.90;;;;;;4976367;28;20053;-66
2022/10/01 01:20:27;;;;;;;8.13;6.40;;;11.10;99.90;;;;;;4966726;28;20507;-66
2022/10/01 01:23:13;;;;;;;8.65;7.72;;;11.10;99.90;;;;;;4976161;28;20051;-67
2022/10/01 01:25:53;;;;;;;13.25;7.50;;;11.20;99.90;;;;;;4974903;28;20047;-66
2022/10/01 01:28:43;;;;;;;10.80;7.47;;;11.10;99.90;;;;;;4976378;28;20105;-66
2022/10/01 01:31:17;;;;;;;9.65;7.90;;;11.10;99.90;;;;;;4976156;28;20049;-66
2022/10/01 01:33:46;;;;;;;10.20;8.07;;;11.20;99.90;;;;;;4976040;28;20562;-65
2022/10/01 01:36:19;;;;;;;10.27;7.25;;;11.10;99.90;;;;;;4975979;28;20063;-66
2022/10/01 01:38:54;;;;;;;8.63;7.35;;;11.10;99.90;;;;;;4975727;28;20527;-66
2022/10/01 01:41:23;;;;;;;11.05;8.23;;;11.00;99.90;;;;;;4975163;28;20556;-66
2022/10/01 01:43:52;;;;;;;8.82;7.93;;;11.10;99.90;;;;;;4975614;28;20050;-66
2022/10/01 01:46:19;;;;;;;10.50;8.13;;;11.10;99.90;;;;;;4974455;28;20043;-66
2022/10/01 01:48:49;;;;;;;8.77;7.60;;;11.10;99.90;;;;;;4975775;28;20070;-66
2022/10/01 01:51:22;;;;;;;9.82;7.65;;;11.10;99.90;;;;;;4975683;28;20058;-66
2022/10/01 01:53:48;;;;;;;9.43;7.60;;;11.00;99.90;;;;;;4975680;28;20054;-66
2022/10/01 01:56:16;;;;;;;8.75;7.03;;;11.10;99.90;;;;;;4973694;28;20054;-66
2022/10/01 01:58:43;;;;;;;9.98;7.90;;;11.00;99.90;;;;;;4974438;28;20051;-66
2022/10/01 02:01:38;;;;;;;12.82;8.50;;;11.00;99.90;;;;;;4974643;28;20047;-66
2022/10/01 02:04:35;;;;;;;11.45;7.05;;;11.00;99.90;;;;;;4975378;28;20046;-66
2022/10/01 02:07:25;;;;;;;10.65;8.25;;;11.00;99.90;;;;;;4974249;28;20134;-66
2022/10/01 02:10:09;;;;;;;10.63;8.38;;;11.00;99.90;;;;;;4975383;28;20125;-66
2022/10/01 02:13:00;;;;;;;13.68;8.55;;;11.00;99.90;;;;;;4974102;28;20074;-66
2022/10/01 02:16:00;;;;;;;11.20;8.45;;;11.00;99.90;;;;;;4975721;28;20384;-66
2022/10/01 02:19:04;;;;;;;11.30;7.55;;;11.00;99.90;;;;;;4975583;28;20118;-66
2022/10/01 02:21:46;;;;;;;10.50;7.47;;;11.00;99.90;;;;;;4934996;28;20054;-67
2022/10/01 02:24:24;;;;;;;9.77;7.80;;;11.00;99.90;;;;;;4974043;28;20051;-66
2022/10/01 02:26:52;;;;;;;11.02;7.43;;;11.00;99.90;;;;;;4974984;28;20491;-66
2022/10/01 02:29:21;;;;;;;10.20;7.95;;;10.90;99.90;;;;;;4973686;28;20582;-67
2022/10/01 02:31:52;;;;;;;8.93;7.35;;;11.00;99.90;;;;;;4974994;28;20046;-67
2022/10/01 02:34:19;;;;;;;13.93;8.50;;;10.90;99.90;;;;;;4973887;28;20070;-66
2022/10/01 02:36:46;;;;;;;11.88;8.57;;;10.90;99.90;;;;;;4974905;28;20133;-66
2022/10/01 02:39:17;;;;;;;12.27;8.55;;;10.90;99.90;;;;;;4974824;28;20134;-66
2022/10/01 02:41:46;;;;;;;14.13;8.82;;;10.90;99.90;;;;;;4974252;28;20050;-67
2022/10/01 02:44:20;;;;;;;12.38;8.50;;;10.90;99.90;;;;;;4974686;28;20058;-67
2022/10/01 02:47:06;;;;;;;9.57;8.15;;;11.00;99.90;;;;;;4974639;28;20043;-67
2022/10/01 02:49:34;;;;;;;10.48;7.22;;;10.90;99.90;;;;;;4974757;28;20094;-66
2022/10/01 02:52:26;;;;;;;14.15;8.80;;;10.90;99.90;;;;;;4975104;28;20054;-66
2022/10/01 02:54:57;;;;;;;11.93;6.75;;;10.90;99.90;;;;;;4974449;28;20550;-66
2022/10/01 02:57:26;;;;;;;12.30;8.32;;;10.80;99.90;;;;;;4974759;28;20058;-66
2022/10/01 02:59:58;;;;;;;11.18;8.23;;;10.80;99.90;;;;;;4973333;28;20077;-66
2022/10/01 03:02:26;;;;;;;10.40;7.40;;;10.80;99.90;;;;;;4974599;28;20062;-66
2022/10/01 03:04:55;;;;;;;11.18;7.75;;;10.80;99.90;;;;;;4974474;28;20462;-66
2022/10/01 03:07:21;;;;;;;12.02;8.77;;;11.10;99.90;;;;;;4972931;28;20054;-66
2022/10/01 03:09:48;;;;;;;8.98;6.75;;;11.00;99.90;;;;;;4974314;28;20051;-66
2022/10/01 03:12:15;;;;;;;11.95;7.85;;;11.00;99.90;;;;;;4974008;28;20054;-66
2022/10/01 03:14:43;;;;;;;10.65;8.25;;;10.70;99.90;;;;;;4973542;28;20399;-66
2022/10/01 03:17:09;;;;;;;10.00;6.95;;;10.80;99.90;;;;;;4973448;28;20124;-66
2022/10/01 03:19:35;;;;;;;7.78;5.93;;;10.80;99.90;;;;;;4974366;28;20158;-66
2022/10/01 03:22:01;;;;;;;9.57;7.60;;;10.80;99.90;;;;;;4974140;28;20130;-66
2022/10/01 03:24:27;;;;;;;10.88;7.50;;;9.70;99.90;;;;;;4974419;28;20121;-66
2022/10/01 03:26:55;;;;;;;7.47;6.45;;;10.80;99.90;;;;;;4974235;28;20049;-66
2022/10/01 03:29:20;;;;;;;12.45;7.65;;;10.90;99.90;;;;;;4974333;28;20121;-66
2022/10/01 03:31:46;;;;;;;9.07;6.30;;;10.80;99.90;;;;;;4974145;28;20529;-66
2022/10/01 03:34:12;;;;;;;7.97;6.65;;;10.80;99.90;;;;;;4974089;28;20058;-66
2022/10/01 03:36:38;;;;;;;7.47;5.70;;;10.80;99.90;;;;;;4972921;28;20395;-67
2022/10/01 03:39:04;;;;;;;7.70;6.07;;;10.80;99.90;;;;;;4974828;28;20055;-66
2022/10/01 03:41:30;;;;;;;6.57;5.65;;;10.80;99.90;;;;;;4972843;28;20051;-66
2022/10/01 03:43:55;;;;;;;10.82;6.63;;;10.50;99.90;;;;;;4974333;28;20057;-66
2022/10/01 03:46:21;;;;;;;7.15;5.20;;;10.80;99.90;;;;;;4973000;28;20047;-65
2022/10/01 03:48:48;;;;;;;5.15;4.65;;;11.20;99.90;;;;;;4973031;28;20394;-66
2022/10/01 03:51:14;;;;;;;5.18;4.68;;;10.90;99.90;;;;;;4973999;28;20094;-66
2022/10/01 03:53:40;;;;;;;5.90;3.95;;;10.90;99.90;;;;;;4973954;28;20049;-66
2022/10/01 03:56:06;;;;;;;6.95;3.85;;;10.80;99.90;;;;;;4974266;28;20129;-66
2022/10/01 03:58:31;;;;;;;7.63;4.70;;;10.80;99.90;;;;;;4974152;28;20047;-66
2022/10/01 04:00:59;;;;;;;5.18;4.03;;;10.80;99.90;;;;;;4974072;28;20047;-66
2022/10/01 04:03:25;;;;;;;4.93;4.20;;;10.80;99.90;;;;;;4974018;28;20059;-66
2022/10/01 04:05:50;;;;;;;5.10;3.08;;;10.90;99.90;;;;;;4973782;28;20103;-65
2022/10/01 04:08:16;;;;;;;5.05;3.40;;;10.90;99.90;;;;;;4972954;28;20055;-66
2022/10/01 04:10:42;;;;;;;6.07;4.72;;;10.90;99.90;;;;;;4973884;28;20046;-67
2022/10/01 04:13:08;;;;;;;4.25;3.35;;;10.80;99.90;;;;;;4973641;28;20046;-66
2022/10/01 04:15:34;;;;;;;3.10;2.75;;;10.80;99.90;;;;;;4973622;28;20067;-65
2022/10/01 04:18:04;;;;;;;5.53;4.10;;;10.90;99.90;;;;;;4974006;28;20078;-66
2022/10/01 04:20:32;;;;;;;3.72;3.03;;;10.90;99.90;;;;;;4977375;28;20057;-66
2022/10/01 04:22:58;;;;;;;4.15;3.03;;;10.90;99.90;;;;;;4977398;28;20484;-66
2022/10/01 04:25:24;;;;;;;2.60;2.40;;;10.90;99.90;;;;;;4977245;28;20058;-66
2022/10/01 04:27:55;;;;;;;2.55;1.92;;;10.90;99.90;;;;;;4976245;28;20126;-66
2022/10/01 04:30:21;;;;;;;3.78;2.25;;;10.90;99.90;;;;;;4976289;28;20051;-65
2022/10/01 04:32:46;;;;;;;2.40;2.10;;;10.90;99.90;;;;;;4977031;28;20062;-66
2022/10/01 04:35:12;;;;;;;2.95;1.92;;;10.90;99.90;;;;;;4976948;28;20058;-66
2022/10/01 04:37:38;;;;;;;2.20;1.80;;;10.90;99.90;;;;;;4977469;28;20475;-65
2022/10/01 04:40:05;;;;;;;2.75;2.25;;;10.90;99.90;;;;;;4976883;28;20129;-66
2022/10/01 04:42:30;;;;;;;2.63;2.03;;;10.90;99.90;;;;;;4976663;28;20055;-66
2022/10/01 04:44:56;;;;;;;3.03;1.95;;;10.90;99.90;;;;;;4975838;28;20092;-66
2022/10/01 04:47:22;;;;;;;2.30;1.80;;;10.90;99.90;;;;;;4976535;28;20043;-66
2022/10/01 04:49:48;;;;;;;3.05;2.38;;;11.00;99.90;;;;;;4976910;28;20053;-66
2022/10/01 04:52:14;;;;;;;3.28;2.20;;;10.90;99.90;;;;;;4975565;28;20415;-66
2022/10/01 04:54:40;;;;;;;2.30;2.10;;;10.90;99.90;;;;;;4976728;28;20057;-66
2022/10/01 04:57:05;;;;;;;3.00;2.42;;;10.90;99.90;;;;;;4975815;28;20059;-66
2022/10/01 04:59:32;;;;;;;2.88;2.22;;;10.90;99.90;;;;;;4976749;28;20145;-66
2022/10/01 05:01:57;;;;;;;2.33;2.03;;;10.90;99.90;;;;;;4975263;28;20439;-66
2022/10/01 05:04:23;;;;;;;2.40;1.83;;;11.20;99.90;;;;;;4975551;28;20058;-66
2022/10/01 05:06:49;;;;;;;3.67;1.83;;;11.00;99.90;;;;;;4976351;28;20061;-66
2022/10/01 05:09:15;;;;;;;2.85;2.60;;;10.90;99.90;;;;;;4976504;28;20149;-65
2022/10/01 05:11:41;;;;;;;2.58;2.35;;;11.00;99.90;;;;;;4974623;28;20487;-65
2022/10/01 05:14:07;;;;;;;3.65;2.53;;;10.90;99.90;;;;;;4976315;28;20061;-66
2022/10/01 05:16:33;;;;;;;2.90;2.35;;;11.00;99.90;;;;;;4976134;28;20046;-66
2022/10/01 05:18:58;;;;;;;3.50;2.60;;;11.00;99.90;;;;;;4976240;28;20046;-66
2022/10/01 05:21:24;;;;;;;2.42;2.22;;;11.00;99.90;;;;;;4975471;28;20546;-66
2022/10/01 05:23:49;;;;;;;2.67;2.47;;;11.10;99.90;;;;;;4976233;28;20531;-66
2022/10/01 05:26:15;;;;;;;2.58;1.90;;;11.10;99.90;;;;;;4976379;28;20043;-66
2022/10/01 05:28:43;;;;;;;3.80;2.17;;;11.00;99.90;;;;;;4976082;28;20483;-66
2022/10/01 05:31:10;;;;;;;2.67;2.25;;;11.10;99.90;;;;;;4975868;28;20047;-66
2022/10/01 05:33:35;;;;;;;3.55;2.30;;;11.00;99.90;;;;;;4975884;28;20042;-66
2022/10/01 05:36:03;;;;;;;2.30;2.10;;;11.10;99.90;;;;;;4975876;28;20057;-66
2022/10/01 05:38:29;;;;;;;3.55;2.13;;;11.00;99.90;;;;;;4976230;28;20050;-65
2022/10/01 05:40:55;;;;;;;1.92;1.75;;;11.10;99.90;;;;;;4975977;28;20058;-66
2022/10/01 05:43:21;;;;;;;2.85;2.22;;;11.10;99.90;;;;;;4974969;28;20084;-66
2022/10/01 05:45:46;;;;;;;3.08;2.42;;;11.10;99.90;;;;;;4975808;28;20082;-66
2022/10/01 05:48:12;;;;;;;4.50;2.42;;;11.20;99.90;;;;;;4958296;28;20050;-65
2022/10/01 05:50:39;;;;;;;2.90;2.40;;;11.20;99.90;;;;;;4975874;28;20042;-66
2022/10/01 05:53:06;;;;;;;4.03;2.80;;;11.30;99.90;;;;;;4975712;28;20137;-65
2022/10/01 05:55:33;;;;;;;3.03;2.72;;;11.20;99.90;;;;;;4975420;28;20438;-65
2022/10/01 05:58:10;;;;;;;4.22;2.33;;;11.20;99.90;;;;;;4975485;28;20407;-66
2022/10/01 06:00:38;;;;;;;4.93;2.90;;;11.20;99.90;;;;;;4974373;28;20388;-65
2022/10/01 06:03:05;;;;;;;4.30;3.08;;;11.20;99.90;;;;;;4975427;28;20043;-66
2022/10/01 06:05:33;;;;;;;4.28;3.10;;;11.20;99.90;;;;;;4975549;28;20082;-65
2022/10/01 06:07:59;;;;;;;5.68;3.83;;;11.20;99.90;;;;;;4974078;28;20039;-65
2022/10/01 06:10:29;;;;;;;6.18;5.07;;;11.20;99.90;;;;;;4975435;28;20403;-66
2022/10/01 06:13:01;;;;;;;7.38;5.80;;;11.30;99.90;;;;;;4973507;28;20058;-66
2022/10/01 06:15:28;;;;;;;6.68;6.07;;;11.30;99.90;;;;;;4975365;28;20047;-66
2022/10/01 06:17:53;;;;;;;7.40;6.57;;;11.30;99.90;;;;;;4975666;28;20081;-66
2022/10/01 06:20:19;;;;;;;10.23;8.20;;;11.30;99.90;;;;;;4975060;28;20467;-66
2022/10/01 06:22:54;;;;;;;7.15;6.10;;;11.40;99.90;;;;;;4981024;28;20100;-66
2022/10/01 06:25:20;;;;;;;8.00;6.13;;;11.40;99.90;;;;;;4979617;28;20407;-66
2022/10/01 06:27:54;;;;;;;10.35;7.80;;;11.40;99.90;;;;;;4975172;28;20038;-66
2022/10/01 06:30:20;;;;;;;16.25;11.52;;;11.40;99.90;;;;;;4974945;28;20058;-66
2022/10/01 06:32:45;;;;;;;26.23;18.70;;;11.40;99.90;;;;;;4975062;28;20043;-66
2022/10/01 06:35:11;;;;;;;33.70;23.60;;;11.40;99.90;;;;;;4974952;28;20495;-66
2022/10/01 06:37:37;;;;;;;34.22;24.00;;;11.40;99.90;;;;;;4975084;28;20046;-66
2022/10/01 06:40:04;;;;;;;24.17;16.83;;;11.50;99.90;;;;;;4975122;28;20049;-66
2022/10/01 06:42:30;;;;;;;12.38;10.13;;;11.50;99.90;;;;;;4973724;28;20078;-66
2022/10/01 06:44:55;;;;;;;13.82;9.23;;;11.50;99.90;;;;;;4975027;28;20483;-66
2022/10/01 06:47:21;;;;;;;10.95;8.95;;;11.60;99.90;;;;;;4957558;28;20541;-66
2022/10/01 06:49:47;;;;;;;8.88;6.72;;;11.60;99.90;;;;;;4975025;28;20047;-66
2022/10/01 06:54:58;;;;;;;4.82;3.63;;;11.70;99.90;;;;;;4974900;28;20054;-65
2022/10/01 06:57:24;;;;;;;7.15;3.85;;;11.70;99.90;;;;;;4973743;28;20608;-65
2022/10/01 06:59:51;;;;;;;4.97;4.28;;;11.70;99.90;;;;;;4973850;28;20046;-66
2022/10/01 07:02:22;;;;;;;5.13;4.13;;;11.80;99.90;;;;;;4974919;28;20503;-66
2022/10/01 07:04:48;;;;;;;5.45;4.13;;;11.80;99.90;;;;;;4973618;28;20487;-65
2022/10/01 07:07:14;;;;;;;4.68;4.18;;;12.00;99.90;;;;;;4974500;28;20047;-66
2022/10/01 07:09:39;;;;;;;4.03;3.72;;;11.90;99.90;;;;;;4974685;28;20116;-66
2022/10/01 07:12:05;;;;;;;5.05;3.88;;;11.90;99.90;;;;;;4973275;28;20039;-67
2022/10/01 07:14:31;;;;;;;5.05;3.85;;;11.90;99.90;;;;;;4974856;28;20068;-66
2022/10/01 07:16:56;;;;;;;5.32;3.95;;;11.90;99.90;;;;;;4974653;28;20050;-66
2022/10/01 07:19:22;;;;;;;9.13;4.75;;;12.20;99.90;;;;;;4974506;28;20110;-66
2022/10/01 07:21:48;;;;;;;5.80;3.75;;;12.00;99.90;;;;;;4941437;28;20047;-66
2022/10/01 07:24:13;;;;;;;5.38;4.88;;;12.00;99.90;;;;;;4974545;28;20047;-66
2022/10/01 07:26:39;;;;;;;7.13;4.50;;;12.00;99.90;;;;;;4974640;28;20376;-65
2022/10/01 07:29:05;;;;;;;8.80;4.63;;;12.20;99.90;;;;;;4973489;28;20085;-66
2022/10/01 07:31:31;;;;;;;6.82;4.13;;;12.10;99.90;;;;;;4974433;28;20101;-66
2022/10/01 07:33:57;;;;;;;5.75;4.53;;;12.20;99.90;;;;;;4973646;28;20051;-66
2022/10/01 07:36:23;;;;;;;8.85;5.13;;;12.30;99.90;;;;;;4973009;28;20059;-66
2022/10/01 07:38:50;;;;;;;7.53;4.63;;;12.20;99.90;;;;;;4973259;28;20422;-66
2022/10/01 07:41:16;;;;;;;6.68;3.92;;;12.40;99.90;;;;;;4973277;28;20078;-65
2022/10/01 07:43:42;;;;;;;6.15;4.32;;;12.40;99.90;;;;;;4973890;28;20046;-66
2022/10/01 07:46:08;;;;;;;5.65;3.83;;;12.60;99.90;;;;;;4973104;28;20071;-65
2022/10/01 07:48:34;;;;;;;5.15;3.60;;;12.50;99.90;;;;;;4974237;28;20047;-66
2022/10/01 07:51:00;;;;;;;6.35;4.60;;;12.70;99.90;;;;;;4973097;28;20042;-66
2022/10/01 07:53:27;;;;;;;5.78;4.18;;;12.60;99.90;;;;;;4973546;28;20133;-66
2022/10/01 07:55:52;;;;;;;7.13;3.53;;;12.50;99.90;;;;;;4978003;28;20487;-66
2022/10/01 07:58:22;;;;;;;10.18;4.38;;;12.70;99.90;;;;;;4976712;28;20047;-66
2022/10/01 08:00:48;;;;;;;8.00;3.97;;;12.70;99.90;;;;;;4977772;28;20050;-66
2022/10/01 08:03:13;;;;;;;7.20;3.47;;;12.70;99.90;;;;;;4976431;28;20047;-66
2022/10/01 08:05:41;;;;;;;5.88;3.22;;;12.70;99.90;;;;;;4977613;28;20055;-67
2022/10/01 08:08:07;;;;;;;4.10;3.30;;;12.80;99.90;;;;;;4977859;28;20058;-66
2022/10/01 08:10:35;;;;;;;5.10;2.80;;;12.70;99.90;;;;;;4977842;28;20093;-65
2022/10/01 08:13:07;;;;;;;5.85;2.80;;;12.80;99.90;;;;;;4977095;28;20488;-65
2022/10/01 08:15:34;;;;;;;4.05;2.60;;;12.70;99.90;;;;;;4977841;28;20062;-66
2022/10/01 08:18:01;;;;;;;4.45;2.58;;;12.70;99.90;;;;;;4976341;28;20043;-66
2022/10/01 08:20:27;;;;;;;4.30;2.63;;;12.70;99.90;;;;;;4977322;28;20061;-66
2022/10/01 08:22:53;;;;;;;4.28;2.80;;;12.80;99.90;;;;;;4977205;28;20403;-65
2022/10/01 08:25:19;;;;;;;5.32;2.30;;;12.80;99.90;;;;;;4991717;28;20051;-66
2022/10/01 08:27:44;;;;;;;6.85;3.15;;;12.90;99.90;;;;;;4996771;28;20047;-66
2022/10/01 08:30:10;;;;;;;5.97;2.63;;;12.90;99.90;;;;;;4995991;28;20130;-66
2022/10/01 08:32:36;;;;;;;8.40;3.53;;;12.90;99.90;;;;;;4996617;28;20104;-66
2022/10/01 08:35:03;;;;;;;6.80;3.17;;;13.00;99.90;;;;;;4995167;28;20197;-66
2022/10/01 08:37:29;;;;;;;4.93;2.88;;;13.00;99.90;;;;;;4996137;28;20050;-66
2022/10/01 08:39:55;;;;;;;5.07;2.90;;;13.10;99.90;;;;;;4996740;28;20482;-66
2022/10/01 08:42:50;;;;;;;10.50;3.38;;;13.10;99.90;;;;;;4994962;28;20578;-66
2022/10/01 08:45:24;;;;;;;5.32;2.85;;;13.20;99.90;;;;;;4996482;28;20081;-66
2022/10/01 08:48:03;;;;;;;8.13;3.20;;;13.30;99.90;;;;;;4995769;28;20043;-66
2022/10/01 08:50:39;;;;;;;6.07;2.38;;;13.20;99.90;;;;;;4996538;28;20042;-66
2022/10/01 08:53:14;;;;;;;5.90;2.20;;;13.40;99.90;;;;;;4995200;28;20053;-66
2022/10/01 08:55:40;;;;;;;7.35;2.03;;;13.40;99.90;;;;;;4996221;28;20061;-66
2022/10/01 08:58:11;;;;;;;9.73;1.55;;;13.70;99.90;;;;;;4996394;28;20046;-66
2022/10/01 09:00:40;;;;;;;5.20;1.60;;;13.50;99.90;;;;;;4996336;28;20046;-66
2022/10/01 09:03:11;;;;;;;6.20;1.30;;;13.70;99.90;;;;;;4995206;28;20084;-66
2022/10/01 09:05:54;;;;;;;4.20;1.17;;;13.80;99.90;;;;;;4995770;28;20081;-65
2022/10/01 09:08:45;;;;;;;6.03;1.30;;;13.70;99.90;;;;;;4995966;28;20051;-67
2022/10/01 09:11:24;;;;;;;4.90;0.90;;;13.80;99.90;;;;;;4996632;28;20062;-66
2022/10/01 09:14:01;;;;;;;5.72;1.13;;;13.80;99.90;;;;;;4995763;28;20062;-65
2022/10/01 09:16:42;;;;;;;6.15;1.38;;;13.90;99.90;;;;;;4995882;28;20077;-65
2022/10/01 09:19:26;;;;;;;6.60;1.20;;;13.90;99.90;;;;;;4995025;28;20108;-65
2022/10/01 09:22:02;;;;;;;3.88;1.30;;;14.20;99.90;;;;;;4996290;28;20078;-64
2022/10/01 09:24:42;;;;;;;5.53;0.93;;;14.00;99.90;;;;;;4995679;28;20086;-65
2022/10/01 09:27:17;;;;;;;4.03;1.25;;;14.20;99.90;;;;;;4995541;28;20053;-66
2022/10/01 09:30:15;;;;;;;6.32;1.17;;;14.30;99.90;;;;;;4991933;28;20046;-66
2022/10/01 09:32:48;;;;;;;6.45;1.50;;;14.30;99.90;;;;;;4985805;28;20038;-66
2022/10/01 09:35:30;;;;;;;5.22;1.27;;;14.40;99.90;;;;;;4985398;28;20108;-67
2022/10/01 09:38:11;;;;;;;7.97;1.70;;;14.60;99.90;;;;;;4986499;28;20122;-67
2022/10/01 09:40:53;;;;;;;6.15;1.13;;;14.60;99.90;;;;;;4986414;28;20050;-66
2022/10/01 09:43:26;;;;;;;7.20;1.25;;;14.60;99.90;;;;;;4985676;28;20529;-65
2022/10/01 09:45:52;;;;;;;7.43;1.23;;;14.80;99.90;;;;;;4984924;28;20034;-66
2022/10/01 09:48:42;;;;;;;5.40;1.20;;;14.70;99.90;;;;;;4980690;28;20049;-66
2022/10/01 09:51:15;;;;;;;7.28;1.30;;;14.70;99.90;;;;;;4985219;28;20102;-65
2022/10/01 09:53:52;;;;;;;7.22;1.25;;;14.80;99.90;;;;;;4986618;28;20050;-66
2022/10/01 09:56:27;;;;;;;8.48;1.10;;;15.00;99.90;;;;;;4983235;28;20045;-66
2022/10/01 09:59:00;;;;;;;4.80;0.98;;;14.90;99.90;;;;;;4986484;28;20571;-65
2022/10/01 10:01:47;;;;;;;;;;;15.00;99.90;;;;;;4987592;28;20117;-65
2022/10/01 10:04:19;;;;;;;6.20;1.58;;;15.10;99.90;;;;;;4984924;28;20008;-65
2022/10/01 10:06:46;;;;;;;7.13;1.40;;;15.10;99.90;;;;;;4986535;28;20042;-66
2022/10/01 10:09:18;;;;;;;6.70;1.13;;;15.10;99.90;;;;;;4984189;28;20042;-65
2022/10/01 10:11:44;;;;;;;5.47;1.25;;;15.00;99.90;;;;;;4987696;28;20132;-65
2022/10/01 10:14:34;;;;;;;5.05;0.93;;;15.20;99.90;;;;;;4983801;28;20042;-64
2022/10/01 10:17:12;;;;;;;4.35;1.27;;;15.20;99.90;;;;;;4977335;28;20046;-66
2022/10/01 10:19:39;;;;;;;3.55;0.70;;;15.30;99.90;;;;;;4983428;28;20047;-66
2022/10/01 10:22:21;;;;;;;3.05;0.65;;;15.20;99.90;;;;;;4975244;28;20055;-67
2022/10/01 10:24:46;;;;;;;1.45;0.43;;;15.30;99.90;;;;;;4974345;28;20534;-65
2022/10/01 10:27:25;;;;;;;3.40;0.50;;;15.40;99.90;;;;;;4975038;28;20046;-66
2022/10/01 10:30:13;;;;;;;1.52;0.35;;;15.10;99.90;;;;;;4974778;28;20043;-65
2022/10/01 10:32:39;;;;;;;1.27;0.40;;;15.00;99.90;;;;;;4975102;28;20050;-66
2022/10/01 10:35:12;;;;;;;1.15;0.30;;;15.10;99.90;;;;;;4973902;28;20055;-66
2022/10/01 10:37:43;;;;;;;;;;;14.90;99.90;;;;;;4983339;28;20043;-65
2022/10/01 10:40:21;;;;;;;2.33;0.52;;;14.90;99.90;;;;;;4984699;28;19929;-66
2022/10/01 10:42:52;;;;;;;3.13;0.70;;;14.80;99.90;;;;;;4986699;28;20129;-66
2022/10/01 10:45:21;;;;;;;4.43;0.68;;;14.70;99.90;;;;;;4985114;28;20043;-65
2022/10/01 10:47:50;;;;;;;2.42;0.60;;;14.50;99.90;;;;;;4984882;28;20054;-66
2022/10/01 10:50:25;;;;;;;2.88;0.77;;;14.40;99.90;;;;;;4984858;28;20050;-66
2022/10/01 10:52:51;;;;;;;2.05;0.60;;;14.20;99.90;;;;;;4985126;28;20077;-66
2022/10/01 10:55:29;;;;;;;1.55;0.32;;;14.10;99.90;;;;;;4984732;28;20038;-65
2022/10/01 10:58:10;;;;;;;1.70;0.30;;;13.70;99.90;;;;;;4985488;28;20039;-66
2022/10/01 11:00:46;;;;;;;3.67;0.60;;;13.60;99.90;;;;;;4982537;28;20051;-66
2022/10/01 11:03:14;;;;;;;1.45;0.30;;;13.20;99.90;;;;;;4985502;28;20454;-66
2022/10/01 11:05:42;;;;;;;1.90;0.30;;;13.10;99.90;;;;;;4983221;28;20046;-66
2022/10/01 11:08:14;;;;;;;2.58;0.38;;;13.10;99.90;;;;;;4987261;28;20486;-66
2022/10/01 11:10:43;;;;;;;1.27;0.28;;;12.70;99.90;;;;;;4983414;28;20490;-66
2022/10/01 11:13:18;;;;;;;1.67;0.30;;;12.80;99.90;;;;;;4983532;28;20053;-65
2022/10/01 11:16:23;;;;;;;5.43;0.70;;;12.90;99.90;;;;;;4984887;28;20046;-66
2022/10/01 11:19:10;;;;;;;0.80;0.30;;;13.00;99.90;;;;;;4992282;28;20570;-66
2022/10/01 11:21:54;;;;;;;3.50;0.47;;;12.90;99.90;;;;;;4993307;28;20047;-66
2022/10/01 11:24:20;;;;;;;;;;;13.00;99.90;;;;;;4994265;28;20050;-66
2022/10/01 11:27:10;;;;;;;1.88;0.50;;;13.30;99.90;;;;;;4993464;28;20055;-66
2022/10/01 11:29:46;;;;;;;3.42;0.45;;;13.20;99.90;;;;;;4998016;28;20092;-65
2022/10/01 11:32:32;;;;;;;1.60;0.50;;;13.60;99.90;;;;;;4996891;28;20517;-66
2022/10/01 11:35:20;;;;;;;1.00;0.50;;;13.30;99.90;;;;;;4997760;28;20101;-66
2022/10/01 11:37:58;;;;;;;2.03;0.40;;;13.50;99.90;;;;;;4997294;28;20046;-65
2022/10/01 11:40:46;;;;;;;1.60;0.40;;;13.60;99.90;;;;;;4994828;28;20045;-66
2022/10/01 11:43:23;;;;;;;3.70;0.50;;;13.90;99.90;;;;;;4995913;28;20050;-66
2022/10/01 11:45:55;;;;;;;4.85;0.50;;;13.70;99.90;;;;;;4997319;28;20495;-66
2022/10/01 11:48:40;;;;;;;1.77;0.50;;;13.50;99.90;;;;;;4997297;28;20101;-66
2022/10/01 11:51:16;;;;;;;2.10;0.40;;;13.70;99.90;;;;;;4996760;28;20042;-65
2022/10/01 11:53:50;;;;;;;3.63;0.50;;;13.50;99.90;;;;;;4996347;28;20046;-65
2022/10/01 11:59:32;;;;;;;2.42;0.50;;;13.70;99.90;;;;;;4997222;28;20132;-66
2022/10/01 12:02:14;;;;;;;2.72;0.50;;;13.80;99.90;;;;;;4996287;28;20046;-65
2022/10/01 12:05:06;;;;;;;2.50;0.50;;;13.90;99.90;;;;;;4988078;28;20053;-66
2022/10/01 12:07:37;;;;;;;6.53;0.50;;;13.90;99.90;;;;;;4987733;28;20061;-67
2022/10/01 12:10:25;;;;;;;3.60;0.60;;;14.00;99.90;;;;;;4988167;28;20057;-67
2022/10/01 12:13:03;;;;;;;3.97;0.85;;;14.10;99.90;;;;;;4970136;28;20046;-66
2022/10/01 12:15:39;;;;;;;5.13;0.60;;;14.20;99.90;;;;;;4988255;28;20047;-65
2022/10/01 12:18:29;;;;;;;1.77;0.52;;;14.30;99.90;;;;;;4985922;28;20051;-67
2022/10/01 12:20:59;;;;;;;2.78;0.57;;;14.40;99.90;;;;;;4989528;28;20117;-66
2022/10/01 12:23:33;;;;;;;3.50;0.80;;;14.50;99.90;;;;;;4984458;28;20089;-65
2022/10/01 12:26:26;;;;;;;4.03;0.50;;;14.50;99.90;;;;;;4987711;28;20074;-66
2022/10/01 12:29:30;;;;;;;4.70;0.70;;;14.70;99.90;;;;;;4987869;28;20082;-66
2022/10/01 12:32:04;;;;;;;4.60;0.70;;;14.80;99.90;;;;;;4916608;29;20126;-65
2022/10/01 12:34:53;;;;;;;5.63;0.73;;;15.00;99.90;;;;;;4974168;28;20458;-66
2022/10/01 12:37:28;;;;;;;2.45;0.63;;;14.80;99.90;;;;;;4986419;28;20050;-65
2022/10/01 12:40:12;;;;;;;8.07;0.80;;;14.90;99.90;;;;;;4985075;28;20469;-66
2022/10/01 12:43:01;;;;;;;7.05;0.80;;;15.00;99.90;;;;;;4986749;28;20089;-65
2022/10/01 12:45:38;;;;;;;3.10;0.70;;;14.90;99.90;;;;;;4984188;28;20134;-65
2022/10/01 12:48:18;;;;;;;5.07;0.80;;;14.90;99.90;;;;;;4981636;28;20043;-65
2022/10/01 12:50:58;;;;;;;6.75;0.73;;;15.00;99.90;;;;;;4980762;28;20051;-66
2022/10/01 12:53:29;;;;;;;5.50;0.70;;;15.00;99.90;;;;;;4981852;28;20054;-66
2022/10/01 12:55:58;;;;;;;7.00;0.80;;;15.30;99.90;;;;;;4982841;28;20112;-65
2022/10/01 12:59:16;;;;;;;6.65;0.70;;;15.10;99.90;;;;;;4983561;28;20046;-66
2022/10/01 13:02:06;;;;;;;7.95;0.80;;;15.50;99.90;;;;;;4897242;29;20052;-64
2022/10/01 13:04:41;;;;;;;5.15;0.70;;;15.30;99.90;;;;;;4981111;28;20065;-65
2022/10/01 13:07:46;;;;;;;4.45;0.60;;;15.20;99.90;;;;;;4982154;28;20038;-66
2022/10/01 13:10:13;;;;;;;9.95;0.90;;;15.20;99.90;;;;;;4983058;28;20046;-66
2022/10/01 13:12:57;;;;;;;5.15;0.70;;;15.20;99.90;;;;;;4981535;28;20050;-66
2022/10/01 13:15:30;;;;;;;5.60;0.77;;;15.40;99.90;;;;;;4985931;28;20122;-64